createdAt,value
2023-04-29T00:00:58.109Z,0.62
2023-04-29T00:01:59.956Z,0.55
2023-04-29T00:03:01.854Z,0.42
2023-04-29T00:04:04.053Z,0.50
2023-04-29T00:05:06.220Z,0.50
2023-04-29T00:06:09.059Z,0.50
2023-04-29T00:07:10.992Z,0.69
2023-04-29T00:08:12.789Z,0.47
2023-04-29T00:09:14.606Z,0.69
2023-04-29T00:10:16.634Z,0.55
2023-04-29T00:11:18.514Z,0.50
2023-04-29T00:12:20.359Z,0.61
2023-04-29T00:13:22.164Z,0.46
2023-04-29T00:14:24.022Z,0.65
2023-04-29T00:15:25.887Z,0.67
2023-04-29T00:16:30.458Z,0.75
2023-04-29T00:17:32.297Z,0.79
2023-04-29T00:18:34.089Z,0.69
2023-04-29T00:19:35.930Z,0.81
2023-04-29T00:20:37.866Z,0.70
2023-04-29T00:21:39.690Z,0.97
2023-04-29T00:22:41.540Z,0.95
2023-04-29T00:23:43.430Z,1.01
2023-04-29T00:24:45.221Z,0.87
2023-04-29T00:25:47.019Z,1.14
2023-04-29T00:26:48.907Z,1.09
2023-04-29T00:27:50.753Z,1.02
2023-04-29T00:28:52.556Z,0.80
2023-04-29T00:29:54.615Z,0.79
2023-04-29T00:30:56.612Z,0.92
2023-04-29T00:31:58.614Z,1.00
2023-04-29T00:33:00.545Z,1.14
2023-04-29T00:34:02.534Z,0.87
2023-04-29T00:35:04.380Z,1.18
2023-04-29T00:36:06.667Z,1.27
2023-04-29T00:37:08.544Z,1.29
2023-04-29T00:38:10.362Z,1.31
2023-04-29T00:39:13.965Z,1.31
2023-04-29T00:40:15.935Z,1.64
2023-04-29T00:41:17.729Z,2.29
2023-04-29T00:42:19.586Z,1.62
2023-04-29T00:43:21.392Z,1.54
2023-04-29T00:44:23.192Z,1.64
2023-04-29T00:45:25.030Z,1.19
2023-04-29T00:46:26.852Z,1.33
2023-04-29T00:47:28.687Z,1.17
2023-04-29T00:48:30.474Z,1.38
2023-04-29T00:49:32.301Z,1.26
2023-04-29T00:50:34.157Z,1.86
2023-04-29T00:51:35.971Z,1.16
2023-04-29T00:52:37.825Z,1.34
2023-04-29T00:53:39.721Z,1.29
2023-04-29T00:54:41.546Z,2.11
2023-04-29T00:55:43.386Z,2.26
2023-04-29T00:56:45.295Z,2.37
2023-04-29T00:57:47.205Z,2.33
2023-04-29T00:58:49.036Z,1.86
2023-04-29T00:59:51.277Z,1.93
2023-04-29T01:00:54.257Z,2.05
2023-04-29T01:01:57.067Z,2.04
2023-04-29T01:02:59.184Z,1.74
2023-04-29T01:04:01.398Z,1.51
2023-04-29T01:05:03.332Z,1.55
2023-04-29T01:06:05.145Z,1.06
2023-04-29T01:07:06.964Z,1.41
2023-04-29T01:08:08.812Z,1.19
2023-04-29T01:09:10.515Z,0.90
2023-04-29T01:10:12.644Z,1.35
2023-04-29T01:11:14.468Z,1.25
2023-04-29T01:12:16.268Z,1.30
2023-04-29T01:13:18.161Z,1.23
2023-04-29T01:14:19.988Z,0.95
2023-04-29T01:15:21.805Z,1.35
2023-04-29T01:16:23.753Z,1.01
2023-04-29T01:17:25.558Z,0.84
2023-04-29T01:18:27.365Z,0.74
2023-04-29T01:19:29.172Z,1.07
2023-04-29T01:20:31.302Z,0.95
2023-04-29T01:21:33.102Z,0.86
2023-04-29T01:22:34.926Z,1.16
2023-04-29T01:23:36.821Z,1.21
2023-04-29T01:24:38.640Z,0.66
2023-04-29T01:25:40.445Z,0.85
2023-04-29T01:26:42.281Z,0.80
2023-04-29T01:27:44.189Z,0.77
2023-04-29T01:28:46.072Z,0.89
2023-04-29T01:29:47.943Z,1.00
2023-04-29T01:30:49.787Z,0.87
2023-04-29T01:31:51.727Z,1.00
2023-04-29T01:32:53.709Z,0.92
2023-04-29T01:33:55.776Z,1.31
2023-04-29T01:34:57.600Z,1.19
2023-04-29T01:35:59.411Z,0.96
2023-04-29T01:37:01.369Z,0.99
2023-04-29T01:38:03.203Z,1.03
2023-04-29T01:39:05.085Z,0.77
2023-04-29T01:40:07.871Z,1.13
2023-04-29T01:41:09.696Z,0.90
2023-04-29T01:42:11.479Z,1.10
2023-04-29T01:43:13.328Z,1.24
2023-04-29T01:44:15.184Z,1.00
2023-04-29T01:45:16.987Z,1.22
2023-04-29T01:46:18.859Z,1.31
2023-04-29T01:47:20.755Z,1.75
2023-04-29T01:48:22.546Z,2.01
2023-04-29T01:49:24.385Z,2.30
2023-04-29T01:50:26.712Z,2.32
2023-04-29T01:51:28.515Z,1.46
2023-04-29T01:52:30.371Z,1.35
2023-04-29T01:53:32.178Z,1.73
2023-04-29T01:54:34.034Z,1.11
2023-04-29T01:55:35.876Z,1.04
2023-04-29T01:56:37.729Z,1.09
2023-04-29T01:57:39.522Z,0.80
2023-04-29T01:58:41.336Z,0.86
2023-04-29T01:59:43.184Z,0.95
2023-04-29T02:00:45.074Z,1.36
2023-04-29T02:01:46.909Z,1.07
2023-04-29T02:02:48.880Z,1.15
2023-04-29T02:03:51.069Z,1.09
2023-04-29T02:04:53.309Z,1.17
2023-04-29T02:05:55.220Z,0.96
2023-04-29T02:06:57.015Z,1.35
2023-04-29T02:07:58.819Z,1.21
2023-04-29T02:09:00.652Z,1.30
2023-04-29T02:10:04.304Z,1.34
2023-04-29T02:11:06.123Z,1.45
2023-04-29T02:12:08.106Z,1.59
2023-04-29T02:13:09.951Z,1.50
2023-04-29T02:14:11.840Z,1.59
2023-04-29T02:15:14.146Z,1.38
2023-04-29T02:16:16.001Z,2.11
2023-04-29T02:17:17.768Z,1.65
2023-04-29T02:18:19.571Z,0.99
2023-04-29T02:19:21.388Z,1.49
2023-04-29T02:20:23.244Z,1.20
2023-04-29T02:21:25.047Z,1.37
2023-04-29T02:22:26.877Z,1.17
2023-04-29T02:23:28.772Z,1.31
2023-04-29T02:24:30.601Z,1.20
2023-04-29T02:25:32.588Z,1.30
2023-04-29T02:26:34.444Z,1.21
2023-04-29T02:27:36.343Z,1.21
2023-04-29T02:28:38.163Z,1.44
2023-04-29T02:29:40.105Z,1.31
2023-04-29T02:30:41.961Z,1.24
2023-04-29T02:31:43.861Z,1.09
2023-04-29T02:32:45.789Z,1.29
2023-04-29T02:33:47.729Z,1.08
2023-04-29T02:34:49.585Z,1.20
2023-04-29T02:35:51.540Z,1.32
2023-04-29T02:36:53.604Z,1.29
2023-04-29T02:37:55.568Z,1.43
2023-04-29T02:38:58.544Z,1.35
2023-04-29T02:40:00.325Z,1.42
2023-04-29T02:41:02.155Z,2.26
2023-04-29T02:42:03.964Z,1.52
2023-04-29T02:43:05.782Z,1.58
2023-04-29T02:44:07.620Z,1.25
2023-04-29T02:45:09.420Z,1.05
2023-04-29T02:46:11.532Z,1.55
2023-04-29T02:47:13.492Z,1.30
2023-04-29T02:48:15.306Z,1.27
2023-04-29T02:49:17.113Z,1.31
2023-04-29T02:50:19.053Z,1.15
2023-04-29T02:51:20.885Z,1.30
2023-04-29T02:52:22.778Z,1.09
2023-04-29T02:53:24.596Z,0.98
2023-04-29T02:54:26.509Z,1.05
2023-04-29T02:55:28.312Z,1.07
2023-04-29T02:56:30.177Z,1.06
2023-04-29T02:57:32.038Z,1.10
2023-04-29T02:58:33.857Z,1.19
2023-04-29T02:59:37.531Z,1.11
2023-04-29T03:00:39.357Z,0.91
2023-04-29T03:01:41.290Z,1.09
2023-04-29T03:02:43.268Z,0.93
2023-04-29T03:03:45.311Z,1.11
2023-04-29T03:04:47.232Z,1.00
2023-04-29T03:05:49.089Z,0.87
2023-04-29T03:06:50.944Z,0.76
2023-04-29T03:07:52.841Z,1.26
2023-04-29T03:08:54.672Z,0.85
2023-04-29T03:09:56.492Z,0.89
2023-04-29T03:10:58.336Z,1.00
2023-04-29T03:12:00.156Z,1.00
2023-04-29T03:13:01.975Z,0.99
2023-04-29T03:14:03.910Z,0.87
2023-04-29T03:15:05.729Z,1.01
2023-04-29T03:16:09.924Z,0.84
2023-04-29T03:17:11.682Z,1.06
2023-04-29T03:18:13.626Z,1.11
2023-04-29T03:19:15.562Z,1.06
2023-04-29T03:20:17.612Z,1.39
2023-04-29T03:21:19.415Z,0.87
2023-04-29T03:22:21.274Z,1.27
2023-04-29T03:23:23.145Z,1.27
2023-04-29T03:24:24.930Z,1.20
2023-04-29T03:25:26.793Z,1.19
2023-04-29T03:26:28.645Z,1.10
2023-04-29T03:27:30.488Z,1.31
2023-04-29T03:28:32.301Z,1.55
2023-04-29T03:29:34.130Z,1.10
2023-04-29T03:30:36.016Z,1.89
2023-04-29T03:31:37.868Z,1.55
2023-04-29T03:32:39.817Z,1.61
2023-04-29T03:33:41.777Z,1.05
2023-04-29T03:34:43.586Z,1.53
2023-04-29T03:35:47.221Z,1.45
2023-04-29T03:36:49.049Z,1.13
2023-04-29T03:37:50.900Z,1.52
2023-04-29T03:38:52.748Z,1.16
2023-04-29T03:39:54.718Z,1.11
2023-04-29T03:40:56.834Z,0.93
2023-04-29T03:41:59.703Z,1.17
2023-04-29T03:43:01.530Z,1.20
2023-04-29T03:44:03.374Z,1.09
2023-04-29T03:45:05.184Z,1.12
2023-04-29T03:46:07.117Z,1.03
2023-04-29T03:47:09.015Z,1.37
2023-04-29T03:48:10.844Z,1.61
2023-04-29T03:49:12.666Z,1.27
2023-04-29T03:50:14.539Z,1.26
2023-04-29T03:51:16.315Z,1.52
2023-04-29T03:52:18.115Z,1.53
2023-04-29T03:53:19.966Z,1.40
2023-04-29T03:54:21.774Z,1.53
2023-04-29T03:55:23.578Z,2.15
2023-04-29T03:56:25.396Z,1.68
2023-04-29T03:57:27.211Z,2.17
2023-04-29T03:58:29.060Z,1.83
2023-04-29T03:59:30.877Z,1.83
2023-04-29T04:00:32.686Z,1.53
2023-04-29T04:01:34.556Z,1.27
2023-04-29T04:02:36.742Z,1.39
2023-04-29T04:03:39.121Z,1.19
2023-04-29T04:04:41.339Z,1.13
2023-04-29T04:05:43.460Z,1.35
2023-04-29T04:06:45.275Z,1.58
2023-04-29T04:07:47.172Z,1.59
2023-04-29T04:08:49.004Z,1.36
2023-04-29T04:09:51.118Z,1.31
2023-04-29T04:10:53.299Z,1.83
2023-04-29T04:11:55.090Z,1.76
2023-04-29T04:12:56.887Z,1.99
2023-04-29T04:13:58.757Z,1.86
2023-04-29T04:15:00.557Z,2.72
2023-04-29T04:16:02.405Z,3.01
2023-04-29T04:17:04.177Z,3.30
2023-04-29T04:18:06.006Z,3.55
2023-04-29T04:19:07.943Z,3.57
2023-04-29T04:20:10.271Z,3.80
2023-04-29T04:21:12.107Z,4.24
2023-04-29T04:22:13.949Z,4.11
2023-04-29T04:23:15.869Z,3.94
2023-04-29T04:24:17.730Z,3.92
2023-04-29T04:25:19.512Z,4.18
2023-04-29T04:26:21.349Z,3.91
2023-04-29T04:27:23.145Z,3.26
2023-04-29T04:28:24.954Z,3.16
2023-04-29T04:29:26.860Z,2.93
2023-04-29T04:30:28.592Z,3.32
2023-04-29T04:31:30.444Z,3.65
2023-04-29T04:32:32.266Z,2.88
2023-04-29T04:33:33.935Z,3.15
2023-04-29T04:34:35.765Z,2.62
2023-04-29T04:35:37.566Z,2.14
2023-04-29T04:36:39.379Z,2.42
2023-04-29T04:37:41.189Z,2.76
2023-04-29T04:38:43.001Z,2.42
2023-04-29T04:39:44.845Z,2.21
2023-04-29T04:40:46.656Z,1.94
2023-04-29T04:41:48.535Z,2.11
2023-04-29T04:42:50.338Z,2.44
2023-04-29T04:43:52.162Z,3.15
2023-04-29T04:44:53.995Z,3.01
2023-04-29T04:45:55.882Z,3.39
2023-04-29T04:46:57.674Z,3.37
2023-04-29T04:47:59.498Z,3.56
2023-04-29T04:49:01.307Z,3.38
2023-04-29T04:50:03.140Z,3.08
2023-04-29T04:51:04.961Z,3.03
2023-04-29T04:52:06.773Z,2.66
2023-04-29T04:53:08.602Z,2.97
2023-04-29T04:54:10.426Z,3.60
2023-04-29T04:55:13.858Z,3.41
2023-04-29T04:56:15.898Z,3.78
2023-04-29T04:57:17.709Z,3.31
2023-04-29T04:58:19.554Z,2.86
2023-04-29T04:59:21.550Z,3.49
2023-04-29T05:00:23.394Z,4.50
2023-04-29T05:01:25.309Z,4.25
2023-04-29T05:02:27.192Z,4.80
2023-04-29T05:03:29.245Z,4.44
2023-04-29T05:04:31.302Z,4.62
2023-04-29T05:05:33.265Z,4.75
2023-04-29T05:06:35.093Z,3.35
2023-04-29T05:07:36.906Z,3.47
2023-04-29T05:08:38.698Z,3.37
2023-04-29T05:09:40.526Z,3.25
2023-04-29T05:10:43.114Z,3.79
2023-04-29T05:11:46.108Z,2.84
2023-04-29T05:12:47.946Z,2.95
2023-04-29T05:13:49.745Z,3.26
2023-04-29T05:14:51.546Z,3.25
2023-04-29T05:15:53.408Z,3.39
2023-04-29T05:16:55.254Z,3.79
2023-04-29T05:17:57.051Z,4.04
2023-04-29T05:18:58.842Z,2.79
2023-04-29T05:20:00.637Z,2.89
2023-04-29T05:21:02.492Z,3.13
2023-04-29T05:22:04.322Z,2.68
2023-04-29T05:23:06.014Z,3.86
2023-04-29T05:24:07.826Z,3.31
2023-04-29T05:25:09.624Z,3.57
2023-04-29T05:26:11.659Z,3.30
2023-04-29T05:27:13.456Z,2.70
2023-04-29T05:28:15.257Z,2.41
2023-04-29T05:29:17.069Z,2.13
2023-04-29T05:30:18.888Z,1.93
2023-04-29T05:31:20.781Z,2.10
2023-04-29T05:32:22.652Z,3.59
2023-04-29T05:33:24.442Z,3.43
2023-04-29T05:34:26.274Z,3.29
2023-04-29T05:35:28.082Z,2.93
2023-04-29T05:36:30.044Z,2.79
2023-04-29T05:37:31.821Z,2.15
2023-04-29T05:38:33.614Z,2.17
2023-04-29T05:39:35.474Z,3.46
2023-04-29T05:40:37.292Z,3.51
2023-04-29T05:41:39.134Z,3.41
2023-04-29T05:42:40.944Z,3.74
2023-04-29T05:43:42.756Z,3.29
2023-04-29T05:44:44.565Z,3.33
2023-04-29T05:45:46.388Z,2.80
2023-04-29T05:46:48.307Z,2.83
2023-04-29T05:47:50.188Z,3.23
2023-04-29T05:48:51.959Z,2.58
2023-04-29T05:49:53.981Z,2.74
2023-04-29T05:50:56.314Z,3.12
2023-04-29T05:51:58.148Z,2.70
2023-04-29T05:52:59.944Z,3.13
2023-04-29T05:54:01.777Z,3.42
2023-04-29T05:55:03.588Z,3.41
2023-04-29T05:56:05.416Z,2.83
2023-04-29T05:57:07.238Z,3.03
2023-04-29T05:58:09.052Z,2.49
2023-04-29T05:59:10.854Z,2.85
2023-04-29T06:00:12.660Z,2.79
2023-04-29T06:01:14.467Z,5.53
2023-04-29T06:02:16.353Z,6.12
2023-04-29T06:03:18.231Z,5.60
2023-04-29T06:04:20.404Z,5.55
2023-04-29T06:05:22.795Z,5.92
2023-04-29T06:06:24.837Z,6.26
2023-04-29T06:07:26.698Z,6.19
2023-04-29T06:08:28.528Z,6.09
2023-04-29T06:09:30.353Z,4.86
2023-04-29T06:10:32.171Z,4.20
2023-04-29T06:11:33.954Z,3.79
2023-04-29T06:12:35.818Z,3.79
2023-04-29T06:13:37.650Z,3.74
2023-04-29T06:14:39.450Z,3.54
2023-04-29T06:15:41.138Z,3.42
2023-04-29T06:16:43.056Z,3.27
2023-04-29T06:17:44.915Z,3.11
2023-04-29T06:18:46.727Z,2.67
2023-04-29T06:19:48.524Z,2.79
2023-04-29T06:20:50.504Z,3.00
2023-04-29T06:21:52.331Z,3.28
2023-04-29T06:22:54.189Z,3.24
2023-04-29T06:23:55.984Z,3.76
2023-04-29T06:24:57.784Z,3.59
2023-04-29T06:25:59.595Z,3.38
2023-04-29T06:27:01.407Z,3.38
2023-04-29T06:28:03.282Z,4.22
2023-04-29T06:29:05.090Z,4.35
2023-04-29T06:30:06.995Z,3.49
2023-04-29T06:31:08.812Z,3.99
2023-04-29T06:32:10.771Z,4.31
2023-04-29T06:33:12.811Z,4.28
2023-04-29T06:34:14.668Z,3.78
2023-04-29T06:35:16.462Z,4.16
2023-04-29T06:36:18.264Z,3.87
2023-04-29T06:37:20.057Z,4.17
2023-04-29T06:38:21.898Z,3.50
2023-04-29T06:39:23.738Z,3.65
2023-04-29T06:40:25.616Z,3.31
2023-04-29T06:41:27.427Z,2.95
2023-04-29T06:42:30.397Z,3.41
2023-04-29T06:43:32.231Z,3.01
2023-04-29T06:44:34.055Z,3.29
2023-04-29T06:45:35.874Z,3.33
2023-04-29T06:46:37.829Z,3.53
2023-04-29T06:47:39.666Z,3.96
2023-04-29T06:48:41.566Z,4.44
2023-04-29T06:49:43.378Z,5.39
2023-04-29T06:50:45.195Z,4.72
2023-04-29T06:51:47.049Z,4.79
2023-04-29T06:52:48.853Z,4.64
2023-04-29T06:53:50.714Z,4.75
2023-04-29T06:54:52.518Z,5.62
2023-04-29T06:55:54.385Z,6.10
2023-04-29T06:56:56.222Z,5.35
2023-04-29T06:57:58.027Z,4.87
2023-04-29T06:59:01.005Z,4.72
2023-04-29T07:00:03.283Z,4.51
2023-04-29T07:01:05.190Z,4.16
2023-04-29T07:02:07.108Z,4.55
2023-04-29T07:03:08.978Z,3.59
2023-04-29T07:04:10.911Z,3.09
2023-04-29T07:05:12.790Z,3.24
2023-04-29T07:06:14.618Z,3.50
2023-04-29T07:07:16.438Z,3.73
2023-04-29T07:08:18.236Z,3.51
2023-04-29T07:09:20.072Z,3.79
2023-04-29T07:10:21.879Z,5.33
2023-04-29T07:11:23.704Z,5.65
2023-04-29T07:12:25.522Z,4.65
2023-04-29T07:13:27.348Z,4.33
2023-04-29T07:14:29.193Z,5.33
2023-04-29T07:15:30.997Z,5.40
2023-04-29T07:16:32.869Z,6.87
2023-04-29T07:17:34.781Z,5.53
2023-04-29T07:18:36.644Z,5.77
2023-04-29T07:19:38.490Z,5.53
2023-04-29T07:20:40.394Z,5.25
2023-04-29T07:21:42.196Z,5.78
2023-04-29T07:22:44.033Z,5.71
2023-04-29T07:23:45.835Z,5.93
2023-04-29T07:24:47.679Z,5.60
2023-04-29T07:25:49.473Z,5.18
2023-04-29T07:26:51.287Z,4.06
2023-04-29T07:27:53.098Z,4.01
2023-04-29T07:28:54.909Z,4.56
2023-04-29T07:29:56.743Z,4.61
2023-04-29T07:30:58.582Z,4.20
2023-04-29T07:32:00.376Z,5.34
2023-04-29T07:33:02.232Z,4.89
2023-04-29T07:34:04.191Z,4.69
2023-04-29T07:35:06.039Z,4.59
2023-04-29T07:36:08.064Z,4.93
2023-04-29T07:37:09.856Z,4.43
2023-04-29T07:38:11.687Z,4.13
2023-04-29T07:39:13.500Z,4.49
2023-04-29T07:40:15.340Z,4.58
2023-04-29T07:41:17.142Z,4.06
2023-04-29T07:42:18.951Z,4.37
2023-04-29T07:43:20.749Z,4.06
2023-04-29T07:44:22.552Z,4.65
2023-04-29T07:45:24.396Z,4.15
2023-04-29T07:46:26.315Z,4.75
2023-04-29T07:47:28.232Z,4.27
2023-04-29T07:48:30.022Z,4.43
2023-04-29T07:49:31.845Z,4.07
2023-04-29T07:50:33.679Z,4.59
2023-04-29T07:51:35.489Z,5.03
2023-04-29T07:52:37.283Z,4.71
2023-04-29T07:53:39.096Z,4.87
2023-04-29T07:54:40.906Z,4.21
2023-04-29T07:55:42.743Z,4.84
2023-04-29T07:56:44.955Z,4.39
2023-04-29T07:57:46.820Z,4.97
2023-04-29T07:58:48.609Z,5.24
2023-04-29T07:59:50.419Z,4.57
2023-04-29T08:00:52.463Z,4.81
2023-04-29T08:01:54.292Z,5.29
2023-04-29T08:02:56.225Z,5.57
2023-04-29T08:03:58.429Z,5.13
2023-04-29T08:05:00.968Z,5.64
2023-04-29T08:06:03.267Z,5.36
2023-04-29T08:07:05.121Z,5.53
2023-04-29T08:08:06.918Z,5.41
2023-04-29T08:09:08.719Z,5.29
2023-04-29T08:10:10.529Z,5.31
2023-04-29T08:11:12.375Z,4.80
2023-04-29T08:12:14.177Z,4.90
2023-04-29T08:13:15.985Z,5.18
2023-04-29T08:14:17.794Z,5.19
2023-04-29T08:15:19.795Z,5.74
2023-04-29T08:16:21.744Z,5.07
2023-04-29T08:17:23.675Z,5.12
2023-04-29T08:18:25.481Z,5.23
2023-04-29T08:19:27.260Z,5.53
2023-04-29T08:20:29.069Z,5.38
2023-04-29T08:21:30.904Z,4.95
2023-04-29T08:22:32.701Z,5.07
2023-04-29T08:23:34.505Z,5.54
2023-04-29T08:24:36.302Z,5.75
2023-04-29T08:25:38.114Z,5.73
2023-04-29T08:26:40.064Z,5.60
2023-04-29T08:27:41.854Z,5.62
2023-04-29T08:28:43.687Z,5.74
2023-04-29T08:29:45.478Z,5.65
2023-04-29T08:30:47.305Z,5.44
2023-04-29T08:31:49.160Z,5.83
2023-04-29T08:32:50.986Z,5.86
2023-04-29T08:33:52.765Z,6.19
2023-04-29T08:34:54.859Z,5.79
2023-04-29T08:35:56.885Z,5.89
2023-04-29T08:36:58.735Z,6.04
2023-04-29T08:38:00.548Z,7.16
2023-04-29T08:39:02.364Z,7.51
2023-04-29T08:40:04.260Z,6.79
2023-04-29T08:41:06.065Z,6.44
2023-04-29T08:42:07.909Z,6.54
2023-04-29T08:43:09.700Z,5.86
2023-04-29T08:44:11.496Z,6.09
2023-04-29T08:45:13.300Z,5.80
2023-04-29T08:46:15.360Z,6.30
2023-04-29T08:47:17.162Z,6.91
2023-04-29T08:48:19.048Z,7.77
2023-04-29T08:49:20.994Z,7.96
2023-04-29T08:50:22.796Z,7.23
2023-04-29T08:51:24.601Z,7.35
2023-04-29T08:52:26.432Z,7.05
2023-04-29T08:53:28.261Z,7.27
2023-04-29T08:54:30.084Z,8.74
2023-04-29T08:55:32.290Z,7.78
2023-04-29T08:56:34.229Z,7.29
2023-04-29T08:57:36.048Z,6.51
2023-04-29T08:58:37.861Z,6.09
2023-04-29T08:59:39.684Z,5.69
2023-04-29T09:00:41.476Z,5.92
2023-04-29T09:01:43.414Z,6.06
2023-04-29T09:02:45.589Z,6.44
2023-04-29T09:03:47.532Z,6.86
2023-04-29T09:04:49.519Z,6.56
2023-04-29T09:05:51.301Z,6.81
2023-04-29T09:06:53.210Z,6.62
2023-04-29T09:07:55.069Z,6.29
2023-04-29T09:08:56.882Z,7.29
2023-04-29T09:09:58.703Z,7.79
2023-04-29T09:11:00.598Z,6.41
2023-04-29T09:12:02.422Z,5.75
2023-04-29T09:13:04.270Z,6.01
2023-04-29T09:14:06.069Z,5.94
2023-04-29T09:15:07.876Z,6.38
2023-04-29T09:16:09.831Z,6.79
2023-04-29T09:17:11.617Z,6.79
2023-04-29T09:18:13.554Z,7.03
2023-04-29T09:19:15.390Z,6.44
2023-04-29T09:20:17.169Z,6.99
2023-04-29T09:21:21.641Z,5.41
2023-04-29T09:22:22.644Z,5.89
2023-04-29T09:23:24.473Z,5.84
2023-04-29T09:24:26.298Z,5.47
2023-04-29T09:25:28.116Z,5.56
2023-04-29T09:26:29.941Z,5.46
2023-04-29T09:27:31.772Z,5.79
2023-04-29T09:28:33.614Z,5.79
2023-04-29T09:29:35.449Z,6.02
2023-04-29T09:30:37.241Z,5.52
2023-04-29T09:31:39.089Z,5.64
2023-04-29T09:32:41.154Z,5.51
2023-04-29T09:33:43.041Z,5.22
2023-04-29T09:34:44.866Z,5.27
2023-04-29T09:35:46.676Z,5.89
2023-04-29T09:36:48.479Z,5.83
2023-04-29T09:37:50.294Z,5.75
2023-04-29T09:38:52.048Z,5.54
2023-04-29T09:39:53.754Z,5.73
2023-04-29T09:40:59.569Z,5.27
2023-04-29T09:41:59.449Z,4.97
2023-04-29T09:43:01.236Z,5.71
2023-04-29T09:44:03.069Z,6.41
2023-04-29T09:45:04.968Z,5.44
2023-04-29T09:46:06.860Z,6.75
2023-04-29T09:47:08.833Z,6.35
2023-04-29T09:48:10.628Z,6.02
2023-04-29T09:49:12.476Z,6.50
2023-04-29T09:50:15.048Z,6.84
2023-04-29T09:51:16.856Z,5.53
2023-04-29T09:52:18.659Z,6.83
2023-04-29T09:53:20.465Z,6.70
2023-04-29T09:54:22.311Z,7.98
2023-04-29T09:55:24.124Z,7.39
2023-04-29T09:56:25.920Z,7.65
2023-04-29T09:57:27.728Z,7.95
2023-04-29T09:58:29.536Z,6.78
2023-04-29T09:59:31.388Z,7.53
2023-04-29T10:00:33.201Z,7.03
2023-04-29T10:01:35.069Z,6.77
2023-04-29T10:02:37.128Z,7.63
2023-04-29T10:03:39.351Z,6.59
2023-04-29T10:04:41.664Z,6.49
2023-04-29T10:05:43.524Z,8.47
2023-04-29T10:06:45.331Z,7.72
2023-04-29T10:07:47.140Z,8.09
2023-04-29T10:08:48.951Z,7.75
2023-04-29T10:09:50.797Z,6.91
2023-04-29T10:10:52.606Z,7.09
2023-04-29T10:11:54.424Z,7.28
2023-04-29T10:12:56.263Z,6.39
2023-04-29T10:13:58.075Z,5.89
2023-04-29T10:14:59.904Z,7.69
2023-04-29T10:16:01.702Z,6.55
2023-04-29T10:17:03.512Z,5.97
2023-04-29T10:18:05.321Z,6.44
2023-04-29T10:19:07.142Z,6.06
2023-04-29T10:20:09.399Z,6.41
2023-04-29T10:21:11.212Z,6.33
2023-04-29T10:22:13.043Z,6.84
2023-04-29T10:23:14.923Z,7.09
2023-04-29T10:24:16.719Z,7.06
2023-04-29T10:25:18.588Z,7.97
2023-04-29T10:26:20.390Z,7.68
2023-04-29T10:27:23.309Z,7.12
2023-04-29T10:28:25.838Z,6.78
2023-04-29T10:29:27.639Z,7.43
2023-04-29T10:30:29.588Z,8.08
2023-04-29T10:31:31.422Z,7.50
2023-04-29T10:32:43.497Z,7.61
2023-04-29T10:33:36.842Z,7.44
2023-04-29T10:34:38.726Z,7.08
2023-04-29T10:35:40.588Z,7.35
2023-04-29T10:36:42.399Z,6.29
2023-04-29T10:37:44.193Z,6.97
2023-04-29T10:38:45.999Z,6.33
2023-04-29T10:39:47.712Z,6.49
2023-04-29T10:40:49.645Z,6.49
2023-04-29T10:41:51.478Z,7.37
2023-04-29T10:42:53.298Z,7.57
2023-04-29T10:43:55.127Z,6.63
2023-04-29T10:44:56.933Z,7.23
2023-04-29T10:45:58.815Z,6.79
2023-04-29T10:47:00.738Z,6.46
2023-04-29T10:48:02.716Z,6.76
2023-04-29T10:49:04.570Z,6.39
2023-04-29T10:50:06.570Z,6.62
2023-04-29T10:51:08.419Z,6.19
2023-04-29T10:52:10.335Z,6.33
2023-04-29T10:53:12.155Z,6.11
2023-04-29T10:54:13.971Z,5.75
2023-04-29T10:55:15.753Z,6.31
2023-04-29T10:56:17.700Z,5.46
2023-04-29T10:57:19.525Z,5.09
2023-04-29T10:58:21.348Z,5.33
2023-04-29T10:59:23.150Z,5.36
2023-04-29T11:00:25.063Z,4.91
2023-04-29T11:01:26.958Z,5.71
2023-04-29T11:02:29.156Z,5.23
2023-04-29T11:03:31.233Z,6.39
2023-04-29T11:04:33.167Z,4.72
2023-04-29T11:05:35.169Z,5.80
2023-04-29T11:06:37.009Z,5.16
2023-04-29T11:07:38.836Z,6.87
2023-04-29T11:08:40.622Z,5.15
2023-04-29T11:09:53.187Z,6.47
2023-04-29T11:10:57.766Z,6.48
2023-04-29T11:12:04.171Z,5.76
2023-04-29T11:13:05.964Z,4.79
2023-04-29T11:14:07.777Z,6.04
2023-04-29T11:15:09.591Z,6.36
2023-04-29T11:16:11.862Z,6.34
2023-04-29T11:17:13.849Z,4.88
2023-04-29T11:18:15.667Z,5.89
2023-04-29T11:19:17.569Z,5.64
2023-04-29T11:20:19.377Z,5.61
2023-04-29T11:21:21.167Z,5.08
2023-04-29T11:22:23.006Z,5.59
2023-04-29T11:23:26.166Z,6.21
2023-04-29T11:24:28.445Z,5.79
2023-04-29T11:25:30.237Z,5.19
2023-04-29T11:26:32.174Z,5.59
2023-04-29T11:27:33.984Z,5.94
2023-04-29T11:28:35.785Z,5.52
2023-04-29T11:29:37.578Z,5.21
2023-04-29T11:30:39.496Z,6.08
2023-04-29T11:31:41.363Z,5.63
2023-04-29T11:32:43.434Z,5.96
2023-04-29T11:33:45.438Z,5.41
2023-04-29T11:34:47.237Z,5.87
2023-04-29T11:35:49.044Z,6.03
2023-04-29T11:36:50.953Z,6.17
2023-04-29T11:37:53.053Z,5.37
2023-04-29T11:38:54.868Z,6.28
2023-04-29T11:39:56.670Z,5.94
2023-04-29T11:40:58.689Z,6.02
2023-04-29T11:42:00.490Z,6.22
2023-04-29T11:43:02.385Z,6.19
2023-04-29T11:44:04.152Z,5.43
2023-04-29T11:45:05.961Z,5.76
2023-04-29T11:46:08.104Z,5.86
2023-04-29T11:47:09.998Z,5.90
2023-04-29T11:48:11.900Z,6.51
2023-04-29T11:49:13.832Z,7.68
2023-04-29T11:50:15.822Z,6.83
2023-04-29T11:51:17.766Z,5.44
2023-04-29T11:52:19.563Z,4.57
2023-04-29T11:53:21.424Z,4.99
2023-04-29T11:54:23.242Z,5.63
2023-04-29T11:55:25.069Z,5.53
2023-04-29T11:56:26.867Z,5.71
2023-04-29T11:57:28.668Z,5.17
2023-04-29T11:58:30.529Z,5.65
2023-04-29T11:59:32.335Z,5.03
2023-04-29T12:00:34.157Z,5.69
2023-04-29T12:01:35.936Z,5.54
2023-04-29T12:02:37.868Z,4.54
2023-04-29T12:03:40.044Z,5.31
2023-04-29T12:04:42.052Z,5.09
2023-04-29T12:05:44.077Z,5.37
2023-04-29T12:06:45.976Z,4.92
2023-04-29T12:07:47.786Z,5.65
2023-04-29T12:08:49.644Z,5.65
2023-04-29T12:09:51.425Z,5.27
2023-04-29T12:10:53.245Z,4.94
2023-04-29T12:11:55.052Z,5.46
2023-04-29T12:12:56.878Z,5.49
2023-04-29T12:13:58.880Z,5.09
2023-04-29T12:15:00.698Z,5.55
2023-04-29T12:16:02.565Z,4.95
2023-04-29T12:17:04.527Z,5.44
2023-04-29T12:18:06.376Z,5.83
2023-04-29T12:19:08.201Z,6.37
2023-04-29T12:20:10.859Z,5.97
2023-04-29T12:21:13.028Z,5.44
2023-04-29T12:22:14.853Z,5.46
2023-04-29T12:23:16.665Z,5.57
2023-04-29T12:24:18.442Z,5.55
2023-04-29T12:25:20.230Z,5.96
2023-04-29T12:26:22.036Z,5.30
2023-04-29T12:27:24.922Z,5.39
2023-04-29T12:28:26.781Z,5.26
2023-04-29T12:29:28.606Z,4.89
2023-04-29T12:30:30.425Z,5.48
2023-04-29T12:31:32.241Z,5.63
2023-04-29T12:32:34.168Z,5.35
2023-04-29T12:33:35.950Z,5.71
2023-04-29T12:34:37.825Z,4.93
2023-04-29T12:35:39.655Z,5.34
2023-04-29T12:36:41.580Z,6.55
2023-04-29T12:37:43.399Z,7.86
2023-04-29T12:38:45.182Z,7.96
2023-04-29T12:39:47.030Z,5.73
2023-04-29T12:40:48.952Z,5.15
2023-04-29T12:41:50.770Z,5.80
2023-04-29T12:42:52.570Z,5.14
2023-04-29T12:43:54.382Z,5.21
2023-04-29T12:44:56.471Z,5.72
2023-04-29T12:45:58.549Z,5.00
2023-04-29T12:47:00.479Z,6.03
2023-04-29T12:48:03.208Z,6.00
2023-04-29T12:49:05.820Z,5.76
2023-04-29T12:50:08.688Z,6.21
2023-04-29T12:51:10.505Z,6.20
2023-04-29T12:52:12.300Z,6.53
2023-04-29T12:53:14.130Z,6.73
2023-04-29T12:54:15.971Z,6.44
2023-04-29T12:55:17.819Z,6.24
2023-04-29T12:56:20.242Z,5.89
2023-04-29T12:57:22.162Z,5.68
2023-04-29T12:58:23.998Z,5.57
2023-04-29T12:59:25.871Z,6.11
2023-04-29T13:00:27.701Z,5.06
2023-04-29T13:01:29.571Z,5.21
2023-04-29T13:02:31.563Z,5.73
2023-04-29T13:03:33.821Z,5.63
2023-04-29T13:04:35.994Z,5.39
2023-04-29T13:05:38.251Z,5.30
2023-04-29T13:06:40.081Z,5.37
2023-04-29T13:07:41.873Z,5.69
2023-04-29T13:08:43.716Z,6.01
2023-04-29T13:09:45.618Z,6.49
2023-04-29T13:10:47.498Z,7.53
2023-04-29T13:11:49.293Z,7.00
2023-04-29T13:12:51.116Z,5.36
2023-04-29T13:13:52.927Z,6.42
2023-04-29T13:14:57.234Z,6.97
2023-04-29T13:17:00.891Z,6.04
2023-04-29T13:18:03.112Z,5.91
2023-04-29T13:19:17.963Z,7.05
2023-04-29T13:20:11.108Z,6.43
2023-04-29T13:21:13.048Z,6.56
2023-04-29T13:22:15.341Z,5.41
2023-04-29T13:23:17.193Z,6.15
2023-04-29T13:24:19.004Z,5.97
2023-04-29T13:25:21.050Z,6.90
2023-04-29T13:26:22.858Z,5.42
2023-04-29T13:27:24.690Z,5.88
2023-04-29T13:28:26.499Z,5.19
2023-04-29T13:29:28.311Z,4.81
2023-04-29T13:30:30.113Z,5.44
2023-04-29T13:31:31.959Z,5.23
2023-04-29T13:32:43.760Z,5.03
2023-04-29T13:33:39.823Z,3.92
2023-04-29T13:34:41.050Z,4.65
2023-04-29T13:35:42.885Z,5.46
2023-04-29T13:36:44.719Z,5.03
2023-04-29T13:37:46.494Z,4.73
2023-04-29T13:38:50.811Z,5.24
2023-04-29T13:39:57.254Z,5.50
2023-04-29T13:40:56.151Z,5.36
2023-04-29T13:41:59.188Z,5.81
2023-04-29T13:43:06.374Z,5.52
2023-04-29T13:44:07.657Z,6.08
2023-04-29T13:45:08.651Z,5.01
2023-04-29T13:46:11.453Z,5.61